sensor_id;sensor_type;location;lat;lon;timestamp;temperature;humidity
5196;DHT22;2617;51.006;12.436;2023-12-29T00:00:50;5.30;99.90
5196;DHT22;2617;51.006;12.436;2023-12-29T00:05:51;5.30;99.90
5196;DHT22;2617;51.006;12.436;2023-12-29T00:10:55;5.30;99.90
5196;DHT22;2617;51.006;12.436;2023-12-29T00:15:57;5.30;99.90
5196;DHT22;2617;51.006;12.436;2023-12-29T00:20:59;5.20;99.90
5196;DHT22;2617;51.006;12.436;2023-12-29T00:26:01;5.20;99.90
5196;DHT22;2617;51.006;12.436;2023-12-29T00:31:03;5.20;99.90
5196;DHT22;2617;51.006;12.436;2023-12-29T00:36:05;5.10;99.90
5196;DHT22;2617;51.006;12.436;2023-12-29T00:41:07;5.00;99.90
5196;DHT22;2617;51.006;12.436;2023-12-29T00:46:10;5.00;99.90
5196;DHT22;2617;51.006;12.436;2023-12-29T00:51:12;5.00;99.90
5196;DHT22;2617;51.006;12.436;2023-12-29T00:56:13;5.10;99.90
5196;DHT22;2617;51.006;12.436;2023-12-29T01:01:16;5.10;99.90
5196;DHT22;2617;51.006;12.436;2023-12-29T01:06:17;5.10;99.90
5196;DHT22;2617;51.006;12.436;2023-12-29T01:11:19;5.20;99.90
5196;DHT22;2617;51.006;12.436;2023-12-29T01:16:21;5.20;99.90
5196;DHT22;2617;51.006;12.436;2023-12-29T01:21:23;5.30;99.90
5196;DHT22;2617;51.006;12.436;2023-12-29T01:26:25;5.40;99.90
5196;DHT22;2617;51.006;12.436;2023-12-29T01:31:29;5.60;99.90
5196;DHT22;2617;51.006;12.436;2023-12-29T01:36:31;5.60;99.90
5196;DHT22;2617;51.006;12.436;2023-12-29T01:41:33;5.80;99.90
5196;DHT22;2617;51.006;12.436;2023-12-29T01:46:35;5.80;99.90
5196;DHT22;2617;51.006;12.436;2023-12-29T01:51:37;5.90;99.90
5196;DHT22;2617;51.006;12.436;2023-12-29T01:56:39;5.90;99.90
5196;DHT22;2617;51.006;12.436;2023-12-29T02:01:41;5.80;99.90
5196;DHT22;2617;51.006;12.436;2023-12-29T02:06:43;5.70;99.90
5196;DHT22;2617;51.006;12.436;2023-12-29T02:11:45;5.70;99.90
5196;DHT22;2617;51.006;12.436;2023-12-29T02:16:58;5.80;99.90
5196;DHT22;2617;51.006;12.436;2023-12-29T02:21:57;5.80;99.90
5196;DHT22;2617;51.006;12.436;2023-12-29T02:32:16;6.00;99.90
5196;DHT22;2617;51.006;12.436;2023-12-29T02:37:17;6.10;99.90
5196;DHT22;2617;51.006;12.436;2023-12-29T02:42:19;6.20;99.90
5196;DHT22;2617;51.006;12.436;2023-12-29T02:47:20;6.30;99.90
5196;DHT22;2617;51.006;12.436;2023-12-29T02:52:22;6.30;99.90
5196;DHT22;2617;51.006;12.436;2023-12-29T02:57:24;6.30;99.90
5196;DHT22;2617;51.006;12.436;2023-12-29T03:02:27;6.30;99.90
5196;DHT22;2617;51.006;12.436;2023-12-29T03:07:28;6.30;99.90
5196;DHT22;2617;51.006;12.436;2023-12-29T03:12:30;6.30;99.90
5196;DHT22;2617;51.006;12.436;2023-12-29T03:17:32;6.30;99.90
5196;DHT22;2617;51.006;12.436;2023-12-29T03:22:34;6.50;99.90
5196;DHT22;2617;51.006;12.436;2023-12-29T03:27:36;6.50;99.90
5196;DHT22;2617;51.006;12.436;2023-12-29T03:32:38;6.50;99.90
5196;DHT22;2617;51.006;12.436;2023-12-29T03:37:39;6.60;99.90
5196;DHT22;2617;51.006;12.436;2023-12-29T03:42:41;6.60;99.90
5196;DHT22;2617;51.006;12.436;2023-12-29T03:47:43;6.50;99.90
5196;DHT22;2617;51.006;12.436;2023-12-29T03:52:44;6.50;99.90
5196;DHT22;2617;51.006;12.436;2023-12-29T03:57:46;6.50;99.90
5196;DHT22;2617;51.006;12.436;2023-12-29T04:02:48;6.50;99.90
5196;DHT22;2617;51.006;12.436;2023-12-29T04:07:50;6.50;99.90
5196;DHT22;2617;51.006;12.436;2023-12-29T04:12:51;6.50;99.90
5196;DHT22;2617;51.006;12.436;2023-12-29T04:17:53;6.50;99.90
5196;DHT22;2617;51.006;12.436;2023-12-29T04:22:55;6.60;99.90
5196;DHT22;2617;51.006;12.436;2023-12-29T04:27:57;6.70;99.90
5196;DHT22;2617;51.006;12.436;2023-12-29T04:32:59;6.70;99.90
5196;DHT22;2617;51.006;12.436;2023-12-29T04:38:02;6.80;99.90
5196;DHT22;2617;51.006;12.436;2023-12-29T04:43:03;6.80;99.90
5196;DHT22;2617;51.006;12.436;2023-12-29T04:48:05;6.80;99.90
5196;DHT22;2617;51.006;12.436;2023-12-29T04:53:07;6.90;99.90
5196;DHT22;2617;51.006;12.436;2023-12-29T04:58:09;7.00;99.90
5196;DHT22;2617;51.006;12.436;2023-12-29T05:03:11;6.90;99.90
5196;DHT22;2617;51.006;12.436;2023-12-29T05:08:13;6.90;99.90
5196;DHT22;2617;51.006;12.436;2023-12-29T05:13:15;6.90;99.90
5196;DHT22;2617;51.006;12.436;2023-12-29T05:18:16;6.90;99.90
5196;DHT22;2617;51.006;12.436;2023-12-29T05:23:18;7.00;99.90
5196;DHT22;2617;51.006;12.436;2023-12-29T05:28:20;7.00;99.90
5196;DHT22;2617;51.006;12.436;2023-12-29T05:33:21;7.00;99.90
5196;DHT22;2617;51.006;12.436;2023-12-29T05:38:23;7.00;99.90
5196;DHT22;2617;51.006;12.436;2023-12-29T05:43:25;6.90;99.90
5196;DHT22;2617;51.006;12.436;2023-12-29T05:48:27;7.00;99.90
5196;DHT22;2617;51.006;12.436;2023-12-29T05:53:29;6.90;99.90
5196;DHT22;2617;51.006;12.436;2023-12-29T05:58:31;6.90;99.90
5196;DHT22;2617;51.006;12.436;2023-12-29T06:03:33;7.00;99.90
5196;DHT22;2617;51.006;12.436;2023-12-29T06:08:34;6.90;99.90
5196;DHT22;2617;51.006;12.436;2023-12-29T06:13:36;6.90;99.90
5196;DHT22;2617;51.006;12.436;2023-12-29T06:18:38;7.10;99.90
5196;DHT22;2617;51.006;12.436;2023-12-29T06:23:40;7.10;99.90
5196;DHT22;2617;51.006;12.436;2023-12-29T06:28:42;7.20;99.90
5196;DHT22;2617;51.006;12.436;2023-12-29T06:33:44;7.20;99.90
5196;DHT22;2617;51.006;12.436;2023-12-29T06:38:46;7.10;99.90
5196;DHT22;2617;51.006;12.436;2023-12-29T06:43:48;7.10;99.90
5196;DHT22;2617;51.006;12.436;2023-12-29T06:48:50;7.10;99.90
5196;DHT22;2617;51.006;12.436;2023-12-29T06:53:52;7.00;99.90
5196;DHT22;2617;51.006;12.436;2023-12-29T06:58:54;7.00;99.90
5196;DHT22;2617;51.006;12.436;2023-12-29T07:03:57;7.10;99.90
5196;DHT22;2617;51.006;12.436;2023-12-29T07:08:59;7.20;99.90
5196;DHT22;2617;51.006;12.436;2023-12-29T07:14:01;7.20;99.90
5196;DHT22;2617;51.006;12.436;2023-12-29T07:19:03;7.40;99.90
5196;DHT22;2617;51.006;12.436;2023-12-29T07:24:05;7.60;99.90
5196;DHT22;2617;51.006;12.436;2023-12-29T07:29:07;7.70;99.90
5196;DHT22;2617;51.006;12.436;2023-12-29T07:34:09;7.90;99.90
5196;DHT22;2617;51.006;12.436;2023-12-29T07:39:12;7.80;99.90
5196;DHT22;2617;51.006;12.436;2023-12-29T07:44:14;7.80;99.90
5196;DHT22;2617;51.006;12.436;2023-12-29T07:49:16;7.80;99.90
5196;DHT22;2617;51.006;12.436;2023-12-29T07:54:18;7.90;99.90
5196;DHT22;2617;51.006;12.436;2023-12-29T07:59:21;7.90;99.90
5196;DHT22;2617;51.006;12.436;2023-12-29T08:04:22;7.90;99.90
5196;DHT22;2617;51.006;12.436;2023-12-29T08:09:25;8.00;99.90
5196;DHT22;2617;51.006;12.436;2023-12-29T08:14:28;8.00;99.90
5196;DHT22;2617;51.006;12.436;2023-12-29T08:19:31;8.10;99.90
5196;DHT22;2617;51.006;12.436;2023-12-29T08:24:33;8.10;99.90
5196;DHT22;2617;51.006;12.436;2023-12-29T08:29:35;8.10;99.90
5196;DHT22;2617;51.006;12.436;2023-12-29T08:34:37;8.20;99.90
5196;DHT22;2617;51.006;12.436;2023-12-29T08:39:40;8.50;99.90
5196;DHT22;2617;51.006;12.436;2023-12-29T08:44:42;8.50;99.90
5196;DHT22;2617;51.006;12.436;2023-12-29T08:49:44;8.60;99.90
5196;DHT22;2617;51.006;12.436;2023-12-29T08:54:45;8.60;99.90
5196;DHT22;2617;51.006;12.436;2023-12-29T08:59:47;8.70;99.90
5196;DHT22;2617;51.006;12.436;2023-12-29T09:04:49;8.80;99.90
5196;DHT22;2617;51.006;12.436;2023-12-29T09:09:51;9.00;99.90
5196;DHT22;2617;51.006;12.436;2023-12-29T09:14:52;9.00;99.90
5196;DHT22;2617;51.006;12.436;2023-12-29T09:19:54;9.10;99.90
5196;DHT22;2617;51.006;12.436;2023-12-29T09:24:56;9.10;99.90
5196;DHT22;2617;51.006;12.436;2023-12-29T09:29:58;9.10;99.90
5196;DHT22;2617;51.006;12.436;2023-12-29T09:35:00;9.10;99.90
5196;DHT22;2617;51.006;12.436;2023-12-29T09:40:02;9.20;99.90
5196;DHT22;2617;51.006;12.436;2023-12-29T09:45:07;9.20;99.90
5196;DHT22;2617;51.006;12.436;2023-12-29T09:50:10;9.20;99.90
5196;DHT22;2617;51.006;12.436;2023-12-29T09:55:11;9.20;99.90
5196;DHT22;2617;51.006;12.436;2023-12-29T10:00:15;9.30;99.90
5196;DHT22;2617;51.006;12.436;2023-12-29T10:05:16;9.40;99.90
5196;DHT22;2617;51.006;12.436;2023-12-29T10:10:18;9.60;99.90
5196;DHT22;2617;51.006;12.436;2023-12-29T10:15:24;9.70;99.90
5196;DHT22;2617;51.006;12.436;2023-12-29T10:20:50;9.80;99.90
5196;DHT22;2617;51.006;12.436;2023-12-29T10:25:52;9.80;99.90
5196;DHT22;2617;51.006;12.436;2023-12-29T10:30:54;9.80;99.90
5196;DHT22;2617;51.006;12.436;2023-12-29T10:35:57;9.90;99.90
5196;DHT22;2617;51.006;12.436;2023-12-29T10:41:13;10.00;99.90
5196;DHT22;2617;51.006;12.436;2023-12-29T10:46:14;10.10;99.90
5196;DHT22;2617;51.006;12.436;2023-12-29T10:51:16;10.30;99.90
5196;DHT22;2617;51.006;12.436;2023-12-29T10:56:18;10.40;99.90
5196;DHT22;2617;51.006;12.436;2023-12-29T11:01:21;10.50;99.90
5196;DHT22;2617;51.006;12.436;2023-12-29T11:06:23;10.50;99.90
5196;DHT22;2617;51.006;12.436;2023-12-29T11:11:25;10.50;99.90
5196;DHT22;2617;51.006;12.436;2023-12-29T11:16:26;10.40;99.90
5196;DHT22;2617;51.006;12.436;2023-12-29T11:21:28;10.40;99.90
5196;DHT22;2617;51.006;12.436;2023-12-29T11:26:31;10.40;99.90
5196;DHT22;2617;51.006;12.436;2023-12-29T11:31:33;10.40;99.90
5196;DHT22;2617;51.006;12.436;2023-12-29T11:36:38;10.50;99.90
5196;DHT22;2617;51.006;12.436;2023-12-29T11:41:41;10.50;99.90
5196;DHT22;2617;51.006;12.436;2023-12-29T11:46:43;10.50;99.90
5196;DHT22;2617;51.006;12.436;2023-12-29T11:51:47;10.50;99.90
5196;DHT22;2617;51.006;12.436;2023-12-29T11:56:52;10.50;99.90
5196;DHT22;2617;51.006;12.436;2023-12-29T12:01:54;10.40;99.90
5196;DHT22;2617;51.006;12.436;2023-12-29T12:06:56;10.40;99.90
5196;DHT22;2617;51.006;12.436;2023-12-29T12:11:57;10.50;99.90
5196;DHT22;2617;51.006;12.436;2023-12-29T12:16:59;10.70;99.90
5196;DHT22;2617;51.006;12.436;2023-12-29T12:22:01;11.00;99.90
5196;DHT22;2617;51.006;12.436;2023-12-29T12:27:03;10.90;99.90
5196;DHT22;2617;51.006;12.436;2023-12-29T12:32:05;10.90;99.90
5196;DHT22;2617;51.006;12.436;2023-12-29T12:37:07;10.90;99.90
5196;DHT22;2617;51.006;12.436;2023-12-29T12:42:09;10.90;99.90
5196;DHT22;2617;51.006;12.436;2023-12-29T12:47:14;10.80;99.90
5196;DHT22;2617;51.006;12.436;2023-12-29T12:52:13;10.80;99.90
5196;DHT22;2617;51.006;12.436;2023-12-29T12:57:17;10.80;99.90
5196;DHT22;2617;51.006;12.436;2023-12-29T13:02:18;10.80;99.90
5196;DHT22;2617;51.006;12.436;2023-12-29T13:07:20;10.80;99.90
5196;DHT22;2617;51.006;12.436;2023-12-29T13:12:22;10.70;99.90
5196;DHT22;2617;51.006;12.436;2023-12-29T13:17:23;10.70;99.90
5196;DHT22;2617;51.006;12.436;2023-12-29T13:22:25;10.70;99.90
5196;DHT22;2617;51.006;12.436;2023-12-29T13:27:27;10.50;99.90
5196;DHT22;2617;51.006;12.436;2023-12-29T13:32:29;10.50;99.90
5196;DHT22;2617;51.006;12.436;2023-12-29T13:37:31;10.50;99.90
5196;DHT22;2617;51.006;12.436;2023-12-29T13:42:32;10.40;99.90
5196;DHT22;2617;51.006;12.436;2023-12-29T13:47:34;10.50;99.90
5196;DHT22;2617;51.006;12.436;2023-12-29T13:52:36;10.40;99.90
5196;DHT22;2617;51.006;12.436;2023-12-29T13:57:38;10.30;99.90
5196;DHT22;2617;51.006;12.436;2023-12-29T14:02:40;10.20;99.90
5196;DHT22;2617;51.006;12.436;2023-12-29T14:07:44;10.20;99.90
5196;DHT22;2617;51.006;12.436;2023-12-29T14:12:44;10.20;99.90
5196;DHT22;2617;51.006;12.436;2023-12-29T14:17:46;10.20;99.90
5196;DHT22;2617;51.006;12.436;2023-12-29T14:22:47;10.20;99.90
5196;DHT22;2617;51.006;12.436;2023-12-29T14:27:52;10.10;99.90
5196;DHT22;2617;51.006;12.436;2023-12-29T14:32:54;10.10;99.90
5196;DHT22;2617;51.006;12.436;2023-12-29T14:37:55;10.10;99.90
5196;DHT22;2617;51.006;12.436;2023-12-29T14:42:58;10.10;99.90
5196;DHT22;2617;51.006;12.436;2023-12-29T14:48:00;10.10;99.90
5196;DHT22;2617;51.006;12.436;2023-12-29T14:53:02;10.10;99.90
5196;DHT22;2617;51.006;12.436;2023-12-29T14:58:04;10.10;99.90
5196;DHT22;2617;51.006;12.436;2023-12-29T15:03:06;10.00;99.90
5196;DHT22;2617;51.006;12.436;2023-12-29T15:08:07;10.00;99.90
5196;DHT22;2617;51.006;12.436;2023-12-29T15:13:09;10.00;99.90
5196;DHT22;2617;51.006;12.436;2023-12-29T15:18:12;10.00;99.90
5196;DHT22;2617;51.006;12.436;2023-12-29T15:23:14;10.00;99.90
5196;DHT22;2617;51.006;12.436;2023-12-29T15:28:16;9.90;99.90
5196;DHT22;2617;51.006;12.436;2023-12-29T15:33:17;9.90;99.90
5196;DHT22;2617;51.006;12.436;2023-12-29T15:38:19;10.00;99.90
5196;DHT22;2617;51.006;12.436;2023-12-29T15:43:21;9.90;99.90
5196;DHT22;2617;51.006;12.436;2023-12-29T15:48:24;9.90;99.90
5196;DHT22;2617;51.006;12.436;2023-12-29T15:53:25;9.80;99.90
5196;DHT22;2617;51.006;12.436;2023-12-29T15:58:28;9.70;99.90
5196;DHT22;2617;51.006;12.436;2023-12-29T16:03:31;9.70;99.90
5196;DHT22;2617;51.006;12.436;2023-12-29T16:08:31;9.60;99.90
5196;DHT22;2617;51.006;12.436;2023-12-29T16:13:33;9.50;99.90
5196;DHT22;2617;51.006;12.436;2023-12-29T16:18:35;9.40;99.90
5196;DHT22;2617;51.006;12.436;2023-12-29T16:23:36;9.20;99.90
5196;DHT22;2617;51.006;12.436;2023-12-29T16:28:38;9.10;99.90
5196;DHT22;2617;51.006;12.436;2023-12-29T16:33:40;9.10;99.90
5196;DHT22;2617;51.006;12.436;2023-12-29T16:38:47;9.00;99.90
5196;DHT22;2617;51.006;12.436;2023-12-29T16:43:49;9.00;99.90
5196;DHT22;2617;51.006;12.436;2023-12-29T16:48:51;9.00;99.90
5196;DHT22;2617;51.006;12.436;2023-12-29T16:53:52;9.00;99.90
5196;DHT22;2617;51.006;12.436;2023-12-29T16:58:54;9.00;99.90
5196;DHT22;2617;51.006;12.436;2023-12-29T17:03:56;9.00;99.90
5196;DHT22;2617;51.006;12.436;2023-12-29T17:08:58;9.00;99.90
5196;DHT22;2617;51.006;12.436;2023-12-29T17:13:59;9.10;99.90
5196;DHT22;2617;51.006;12.436;2023-12-29T17:19:02;9.30;99.90
5196;DHT22;2617;51.006;12.436;2023-12-29T17:24:04;9.30;99.90
5196;DHT22;2617;51.006;12.436;2023-12-29T17:29:05;9.40;99.90
5196;DHT22;2617;51.006;12.436;2023-12-29T17:34:07;9.30;99.90
5196;DHT22;2617;51.006;12.436;2023-12-29T17:39:09;9.30;99.90
5196;DHT22;2617;51.006;12.436;2023-12-29T17:44:11;9.30;99.90
5196;DHT22;2617;51.006;12.436;2023-12-29T17:49:13;9.40;99.90
5196;DHT22;2617;51.006;12.436;2023-12-29T17:54:16;9.40;99.90
5196;DHT22;2617;51.006;12.436;2023-12-29T17:59:17;9.40;99.90
5196;DHT22;2617;51.006;12.436;2023-12-29T18:04:20;9.40;99.90
5196;DHT22;2617;51.006;12.436;2023-12-29T18:09:21;9.30;99.90
5196;DHT22;2617;51.006;12.436;2023-12-29T18:14:24;9.20;99.90
5196;DHT22;2617;51.006;12.436;2023-12-29T18:19:26;9.20;99.90
5196;DHT22;2617;51.006;12.436;2023-12-29T18:24:28;9.20;99.90
5196;DHT22;2617;51.006;12.436;2023-12-29T18:29:30;9.20;99.90
5196;DHT22;2617;51.006;12.436;2023-12-29T18:34:32;9.30;99.90
5196;DHT22;2617;51.006;12.436;2023-12-29T18:39:34;9.40;99.90
5196;DHT22;2617;51.006;12.436;2023-12-29T18:44:36;9.40;99.90
5196;DHT22;2617;51.006;12.436;2023-12-29T18:49:37;9.40;99.90
5196;DHT22;2617;51.006;12.436;2023-12-29T18:54:40;9.40;99.90
5196;DHT22;2617;51.006;12.436;2023-12-29T18:59:42;9.40;99.90
5196;DHT22;2617;51.006;12.436;2023-12-29T19:04:44;9.50;99.90
5196;DHT22;2617;51.006;12.436;2023-12-29T19:09:47;9.50;99.90
5196;DHT22;2617;51.006;12.436;2023-12-29T19:14:49;9.50;99.90
5196;DHT22;2617;51.006;12.436;2023-12-29T19:19:50;9.50;99.90
5196;DHT22;2617;51.006;12.436;2023-12-29T19:24:52;9.60;99.90
5196;DHT22;2617;51.006;12.436;2023-12-29T19:29:55;9.60;99.90
5196;DHT22;2617;51.006;12.436;2023-12-29T19:34:56;9.60;99.90
5196;DHT22;2617;51.006;12.436;2023-12-29T19:39:59;9.60;99.90
5196;DHT22;2617;51.006;12.436;2023-12-29T19:45:00;9.60;99.90
5196;DHT22;2617;51.006;12.436;2023-12-29T19:50:02;9.60;99.90
5196;DHT22;2617;51.006;12.436;2023-12-29T19:55:05;9.50;99.90
5196;DHT22;2617;51.006;12.436;2023-12-29T20:00:07;9.60;99.90
5196;DHT22;2617;51.006;12.436;2023-12-29T20:05:09;9.60;99.90
5196;DHT22;2617;51.006;12.436;2023-12-29T20:10:11;9.60;99.90
5196;DHT22;2617;51.006;12.436;2023-12-29T20:15:13;9.60;99.90
5196;DHT22;2617;51.006;12.436;2023-12-29T20:20:15;9.70;99.90
5196;DHT22;2617;51.006;12.436;2023-12-29T20:25:17;9.70;99.90
5196;DHT22;2617;51.006;12.436;2023-12-29T20:30:20;9.70;99.90
5196;DHT22;2617;51.006;12.436;2023-12-29T20:35:22;9.60;99.90
5196;DHT22;2617;51.006;12.436;2023-12-29T20:40:23;9.70;99.90
5196;DHT22;2617;51.006;12.436;2023-12-29T20:45:25;9.60;99.90
5196;DHT22;2617;51.006;12.436;2023-12-29T20:50:28;9.60;99.90
5196;DHT22;2617;51.006;12.436;2023-12-29T20:55:29;9.60;99.90
5196;DHT22;2617;51.006;12.436;2023-12-29T21:00:32;9.60;99.90
5196;DHT22;2617;51.006;12.436;2023-12-29T21:05:33;9.60;99.90
5196;DHT22;2617;51.006;12.436;2023-12-29T21:10:35;9.60;99.90
5196;DHT22;2617;51.006;12.436;2023-12-29T21:15:38;9.60;99.90
5196;DHT22;2617;51.006;12.436;2023-12-29T21:20:39;9.60;99.90
5196;DHT22;2617;51.006;12.436;2023-12-29T21:25:41;9.60;99.90
5196;DHT22;2617;51.006;12.436;2023-12-29T21:30:44;9.50;99.90
5196;DHT22;2617;51.006;12.436;2023-12-29T21:35:46;9.50;99.90
5196;DHT22;2617;51.006;12.436;2023-12-29T21:40:49;9.50;99.90
5196;DHT22;2617;51.006;12.436;2023-12-29T21:45:51;9.60;99.90
5196;DHT22;2617;51.006;12.436;2023-12-29T21:50:52;9.60;99.90
5196;DHT22;2617;51.006;12.436;2023-12-29T21:55:54;9.40;99.90
5196;DHT22;2617;51.006;12.436;2023-12-29T22:00:57;9.40;99.90
5196;DHT22;2617;51.006;12.436;2023-12-29T22:05:59;9.40;99.90
5196;DHT22;2617;51.006;12.436;2023-12-29T22:11:01;9.30;99.90
5196;DHT22;2617;51.006;12.436;2023-12-29T22:16:02;9.30;99.90
5196;DHT22;2617;51.006;12.436;2023-12-29T22:21:05;9.30;99.90
5196;DHT22;2617;51.006;12.436;2023-12-29T22:26:09;9.30;99.90
5196;DHT22;2617;51.006;12.436;2023-12-29T22:31:10;9.30;99.90
5196;DHT22;2617;51.006;12.436;2023-12-29T22:36:11;9.30;99.90
5196;DHT22;2617;51.006;12.436;2023-12-29T22:41:14;9.30;99.90
5196;DHT22;2617;51.006;12.436;2023-12-29T22:46:16;9.30;99.90
5196;DHT22;2617;51.006;12.436;2023-12-29T22:51:18;9.30;99.90
5196;DHT22;2617;51.006;12.436;2023-12-29T22:56:19;9.30;99.90
5196;DHT22;2617;51.006;12.436;2023-12-29T23:01:22;9.40;99.90
5196;DHT22;2617;51.006;12.436;2023-12-29T23:06:24;9.30;99.90
5196;DHT22;2617;51.006;12.436;2023-12-29T23:11:28;9.10;99.90
5196;DHT22;2617;51.006;12.436;2023-12-29T23:16:33;9.00;99.90
5196;DHT22;2617;51.006;12.436;2023-12-29T23:21:32;9.00;99.90
5196;DHT22;2617;51.006;12.436;2023-12-29T23:26:39;8.90;99.90
5196;DHT22;2617;51.006;12.436;2023-12-29T23:31:36;8.80;99.90
5196;DHT22;2617;51.006;12.436;2023-12-29T23:36:38;8.80;99.90
5196;DHT22;2617;51.006;12.436;2023-12-29T23:41:40;8.80;99.90
5196;DHT22;2617;51.006;12.436;2023-12-29T23:46:42;8.70;99.90
5196;DHT22;2617;51.006;12.436;2023-12-29T23:51:44;8.60;99.90
5196;DHT22;2617;51.006;12.436;2023-12-29T23:56:46;8.60;99.90
